Time;durP1;ratioP1;P1;durP2;ratioP2;P2;SDS_P1;SDS_P2;PMS_P1;PMS_P2;Temp;Humidity;BMP_temperature;BMP_pressure;BME280_temperature;BME280_humidity;BME280_pressure;Samples;Min_cycle;Max_cycle;Signal;HPM_P1;HPM_P2
2023/03/16 00:01:49;;;;;;;3.97;2.20;;;3.00;93.20;;;;;;5118443;28;20230;-83
2023/03/16 00:04:14;;;;;;;5.37;2.07;;;2.90;99.90;;;;;;5118486;28;20166;-83
2023/03/16 00:06:40;;;;;;;5.03;2.20;;;2.90;99.90;;;;;;5100045;28;20205;-83
2023/03/16 00:09:06;;;;;;;5.17;1.90;;;2.90;99.90;;;;;;5100472;28;20209;-83
2023/03/16 00:11:31;;;;;;;3.57;1.90;;;3.00;99.90;;;;;;5118724;28;20741;-83
2023/03/16 00:13:57;;;;;;;3.33;1.60;;;2.90;99.90;;;;;;5118661;28;20523;-82
2023/03/16 00:16:23;;;;;;;4.77;2.03;;;2.90;99.90;;;;;;5099379;28;20197;-83
2023/03/16 00:18:49;;;;;;;8.20;2.03;;;2.90;99.90;;;;;;5099926;28;20212;-83
2023/03/16 00:21:15;;;;;;;2.23;1.57;;;2.90;99.90;;;;;;5117997;28;20197;-83
2023/03/16 00:23:41;;;;;;;3.30;1.97;;;3.00;99.90;;;;;;5100407;28;20173;-83
2023/03/16 00:26:08;;;;;;;11.27;2.87;;;2.90;96.60;;;;;;5100126;28;20209;-83
2023/03/16 00:28:34;;;;;;;5.60;2.33;;;3.00;99.90;;;;;;5118146;28;20187;-83
2023/03/16 00:31:02;;;;;;;4.50;2.07;;;3.00;99.90;;;;;;5118652;28;20185;-83
2023/03/16 00:33:27;;;;;;;3.10;1.97;;;3.00;96.00;;;;;;5100636;28;20548;-83
2023/03/16 00:36:00;;;;;;;5.17;1.83;;;3.00;98.90;;;;;;5119309;28;20260;-83
2023/03/16 00:38:28;;;;;;;3.47;2.23;;;3.00;96.10;;;;;;5118776;28;20187;-83
2023/03/16 00:40:53;;;;;;;4.03;1.80;;;3.00;98.80;;;;;;5119058;28;20655;-82
2023/03/16 00:43:19;;;;;;;4.33;2.00;;;3.00;90.30;;;;;;5120235;28;20230;-83
2023/03/16 00:45:45;;;;;;;3.23;1.67;;;3.00;91.70;;;;;;5100282;28;20592;-83
2023/03/16 00:48:10;;;;;;;3.00;2.00;;;3.00;98.80;;;;;;5100675;28;20178;-84
2023/03/16 00:50:42;;;;;;;5.30;2.10;;;3.10;90.80;;;;;;5099783;28;20170;-83
2023/03/16 00:53:07;;;;;;;5.83;1.80;;;3.10;95.10;;;;;;5099062;28;20573;-83
2023/03/16 00:55:33;;;;;;;5.57;2.07;;;3.10;99.90;;;;;;5117849;28;20173;-83
2023/03/16 00:57:58;;;;;;;3.20;2.00;;;3.10;97.30;;;;;;5098674;28;20218;-83
2023/03/16 01:00:27;;;;;;;5.03;2.10;;;3.10;91.90;;;;;;5117725;28;20192;-84
2023/03/16 01:02:52;;;;;;;5.63;2.07;;;3.10;86.80;;;;;;5098682;28;20237;-83
2023/03/16 01:05:18;;;;;;;4.73;2.17;;;3.20;96.00;;;;;;5116998;28;20256;-82
2023/03/16 01:07:44;;;;;;;5.30;2.20;;;3.20;77.10;;;;;;5117835;28;20166;-83
2023/03/16 01:10:10;;;;;;;6.83;2.17;;;3.20;71.10;;;;;;5099065;28;20614;-84
2023/03/16 01:12:35;;;;;;;6.37;1.80;;;3.20;87.30;;;;;;5117803;28;20193;-82
2023/03/16 01:15:01;;;;;;;3.30;1.70;;;3.20;58.80;;;;;;5099009;28;20256;-83
2023/03/16 01:17:27;;;;;;;5.07;1.80;;;3.20;57.20;;;;;;5118020;28;20220;-83
2023/03/16 01:19:52;;;;;;;3.03;1.87;;;3.30;46.60;;;;;;5099145;28;20204;-84
2023/03/16 01:22:18;;;;;;;3.53;2.00;;;3.30;51.80;;;;;;5117946;28;20544;-83
2023/03/16 01:24:44;;;;;;;2.73;2.00;;;3.30;37.70;;;;;;5099997;28;20174;-83
2023/03/16 01:27:11;;;;;;;2.57;2.07;;;3.30;64.00;;;;;;5099471;28;20219;-83
2023/03/16 01:29:38;;;;;;;5.07;1.90;;;3.30;80.50;;;;;;5099682;28;20289;-83
2023/03/16 01:32:06;;;;;;;4.57;2.07;;;3.30;74.90;;;;;;5118941;28;20177;-83
2023/03/16 01:34:33;;;;;;;3.60;2.27;;;3.30;57.20;;;;;;5118609;28;20655;-82
2023/03/16 01:36:59;;;;;;;7.10;2.50;;;3.40;45.00;;;;;;5100582;28;20173;-84
2023/03/16 01:39:26;;;;;;;2.43;1.73;;;3.40;33.60;;;;;;5119202;28;20661;-82
2023/03/16 01:41:52;;;;;;;5.13;2.07;;;3.40;40.40;;;;;;5118984;28;20190;-83
2023/03/16 01:44:34;;;;;;;3.83;1.90;;;3.40;32.80;;;;;;5119615;28;20248;-83
2023/03/16 01:46:59;;;;;;;5.73;2.13;;;3.40;22.70;;;;;;5101441;28;20192;-83
2023/03/16 01:49:35;;;;;;;2.97;1.70;;;3.40;35.20;;;;;;5119592;28;20245;-83
2023/03/16 01:52:17;;;;;;;3.73;2.27;;;3.40;22.60;;;;;;5119651;28;20189;-82
2023/03/16 01:54:54;;;;;;;2.63;1.90;;;3.40;17.70;;;;;;5120066;28;20154;-83
2023/03/16 01:57:23;;;;;;;4.73;2.13;;;3.40;14.70;;;;;;5120162;28;20154;-83
2023/03/16 01:59:56;;;;;;;3.73;1.87;;;3.50;14.20;;;;;;5119573;28;20173;-83
2023/03/16 02:02:26;;;;;;;3.63;1.90;;;3.50;15.00;;;;;;5120221;28;20592;-83
2023/03/16 02:04:51;;;;;;;7.03;1.77;;;3.50;14.90;;;;;;5101072;28;20170;-83
2023/03/16 02:07:20;;;;;;;7.73;2.27;;;3.50;1.00;;;;;;5102270;28;20272;-83
2023/03/16 02:09:48;;;;;;;2.93;1.73;;;3.50;1.00;;;;;;5120683;28;20170;-83
2023/03/16 02:12:19;;;;;;;2.97;1.63;;;3.50;1.00;;;;;;5134986;28;20189;-83
2023/03/16 02:14:49;;;;;;;4.07;2.10;;;3.50;1.00;;;;;;5138331;27;20176;-83
2023/03/16 02:17:18;;;;;;;4.30;1.83;;;3.50;1.00;;;;;;5113995;28;20624;-82
2023/03/16 02:20:24;;;;;;;2.27;1.60;;;3.50;1.00;;;;;;5120875;28;20174;-83
2023/03/16 02:22:53;;;;;;;4.50;1.90;;;3.50;11.40;;;;;;5101999;28;20223;-83
2023/03/16 02:25:25;;;;;;;3.17;1.63;;;3.50;1.00;;;;;;5102588;28;20643;-83
2023/03/16 02:28:04;;;;;;;2.97;1.57;;;3.60;1.00;;;;;;5102448;28;20182;-83
2023/03/16 02:30:30;;;;;;;8.97;2.13;;;3.60;1.00;;;;;;5102485;28;20169;-83
2023/03/16 02:32:56;;;;;;;3.00;1.60;;;3.50;1.00;;;;;;5103269;28;20683;-83
2023/03/16 02:35:22;;;;;;;2.53;1.80;;;3.50;1.00;;;;;;5120925;28;20257;-83
2023/03/16 02:37:47;;;;;;;6.80;2.10;;;3.50;1.00;;;;;;5101708;28;20180;-83
2023/03/16 02:40:22;;;;;;;3.97;1.47;;;3.50;6.20;;;;;;5102358;28;20246;-84
2023/03/16 02:43:04;;;;;;;4.37;1.83;;;3.50;12.00;;;;;;5120651;28;20192;-83
2023/03/16 02:45:41;;;;;;;4.07;1.57;;;3.50;24.80;;;;;;5120485;28;20166;-83
2023/03/16 02:48:13;;;;;;;3.70;1.50;;;3.50;26.60;;;;;;5102510;28;20170;-83
2023/03/16 02:50:46;;;;;;;1.90;1.60;;;3.50;35.90;;;;;;5121874;28;20161;-84
2023/03/16 02:53:13;;;;;;;4.40;1.60;;;3.50;35.20;;;;;;5104409;28;20170;-83
2023/03/16 02:55:38;;;;;;;3.00;1.63;;;3.50;29.50;;;;;;5123132;28;20265;-82
2023/03/16 02:58:04;;;;;;;2.57;1.53;;;3.50;21.50;;;;;;5104463;28;20205;-83
2023/03/16 03:00:29;;;;;;;3.83;1.87;;;3.50;19.00;;;;;;5104994;28;20181;-83
2023/03/16 03:02:55;;;;;;;3.10;1.60;;;3.50;30.10;;;;;;5105961;28;20198;-83
2023/03/16 03:05:21;;;;;;;5.13;2.03;;;3.50;35.40;;;;;;5104719;28;20165;-83
2023/03/16 03:07:46;;;;;;;1.63;1.20;;;3.60;33.30;;;;;;5135335;27;20178;-83
2023/03/16 03:10:12;;;;;;;3.37;1.47;;;3.60;27.40;;;;;;5140487;28;20196;-82
2023/03/16 03:12:37;;;;;;;5.27;1.73;;;3.60;10.80;;;;;;5136366;27;20511;-84
2023/03/16 03:15:04;;;;;;;2.10;1.57;;;3.50;12.30;;;;;;5122010;28;20169;-83
2023/03/16 03:17:30;;;;;;;3.30;1.80;;;3.60;6.30;;;;;;5121689;28;20216;-83
2023/03/16 03:19:57;;;;;;;4.90;1.73;;;3.60;4.90;;;;;;5121574;28;20176;-83
2023/03/16 03:22:25;;;;;;;3.23;1.70;;;3.70;9.40;;;;;;5121615;28;20277;-82
2023/03/16 03:24:50;;;;;;;4.37;1.60;;;3.70;21.60;;;;;;5121976;28;20221;-83
2023/03/16 03:27:16;;;;;;;4.97;1.60;;;3.70;7.30;;;;;;5118937;28;20280;-83
2023/03/16 03:29:41;;;;;;;2.83;1.83;;;3.70;1.00;;;;;;5119315;28;20505;-83
2023/03/16 03:32:07;;;;;;;2.03;1.60;;;3.70;1.00;;;;;;5119707;28;20249;-84
2023/03/16 03:34:33;;;;;;;4.40;1.90;;;3.70;1.00;;;;;;5100989;28;20712;-83
2023/03/16 03:36:59;;;;;;;4.60;1.63;;;3.70;1.00;;;;;;5101259;28;20258;-82
2023/03/16 03:39:25;;;;;;;3.30;1.77;;;3.70;13.80;;;;;;5101020;28;20170;-84
2023/03/16 03:41:53;;;;;;;2.60;1.67;;;3.70;9.40;;;;;;5119181;28;20246;-83
2023/03/16 03:44:22;;;;;;;2.80;1.70;;;3.70;9.60;;;;;;5120466;28;20174;-83
2023/03/16 03:46:48;;;;;;;3.07;1.70;;;3.70;12.70;;;;;;5101065;28;20288;-83
2023/03/16 03:49:14;;;;;;;2.10;1.90;;;3.70;5.10;;;;;;5119704;28;20608;-83
2023/03/16 03:51:40;;;;;;;4.33;1.93;;;3.70;10.70;;;;;;5119899;28;20189;-83
2023/03/16 03:54:06;;;;;;;4.37;1.90;;;3.80;8.60;;;;;;5100819;28;20311;-84
2023/03/16 03:56:32;;;;;;;2.27;1.43;;;3.80;1.00;;;;;;5119423;28;20617;-83
2023/03/16 03:58:58;;;;;;;3.40;1.73;;;3.80;1.00;;;;;;5119737;28;20227;-83
2023/03/16 04:01:23;;;;;;;2.83;1.80;;;3.80;2.50;;;;;;5119865;28;20249;-83
2023/03/16 04:03:49;;;;;;;2.00;1.80;;;3.80;7.60;;;;;;5119329;28;20173;-83
2023/03/16 04:06:15;;;;;;;3.37;1.70;;;3.80;25.20;;;;;;5119929;28;20217;-83
2023/03/16 04:08:40;;;;;;;5.03;1.80;;;3.80;29.10;;;;;;5119678;28;20180;-83
2023/03/16 04:11:06;;;;;;;3.17;1.37;;;3.80;16.10;;;;;;5119504;28;20655;-83
2023/03/16 04:13:31;;;;;;;3.47;1.97;;;3.80;42.10;;;;;;5100642;28;20174;-83
2023/03/16 04:16:03;;;;;;;3.07;1.63;;;3.80;86.60;;;;;;5100750;28;20170;-83
2023/03/16 04:18:37;;;;;;;2.67;1.87;;;3.80;41.10;;;;;;5101113;28;20212;-83
2023/03/16 04:21:04;;;;;;;2.40;1.77;;;3.80;21.80;;;;;;5119864;28;20207;-83
2023/03/16 04:23:32;;;;;;;3.27;1.97;;;3.80;58.10;;;;;;5120179;28;20252;-83
2023/03/16 04:25:58;;;;;;;2.47;1.67;;;3.80;87.10;;;;;;5120138;28;20272;-83
2023/03/16 04:28:25;;;;;;;2.10;1.70;;;3.80;57.70;;;;;;5102072;28;20244;-83
2023/03/16 04:30:53;;;;;;;3.87;1.90;;;3.80;37.10;;;;;;5101834;28;20261;-83
2023/03/16 04:33:20;;;;;;;4.53;1.63;;;3.80;47.30;;;;;;5102160;28;20226;-83
2023/03/16 04:35:46;;;;;;;3.73;1.70;;;3.80;73.00;;;;;;5119244;28;20268;-83
2023/03/16 04:38:12;;;;;;;4.73;1.73;;;3.80;54.20;;;;;;5100781;28;20182;-83
2023/03/16 04:40:37;;;;;;;3.33;1.90;;;3.80;50.40;;;;;;5118546;28;20213;-83
2023/03/16 04:43:03;;;;;;;4.43;1.77;;;3.80;50.40;;;;;;5118702;28;20192;-83
2023/03/16 04:45:29;;;;;;;3.47;1.87;;;3.80;65.30;;;;;;5099829;28;20180;-83
2023/03/16 04:47:55;;;;;;;2.90;1.63;;;3.80;42.00;;;;;;5119126;28;20170;-83
2023/03/16 04:50:21;;;;;;;4.63;2.20;;;3.80;26.30;;;;;;5119382;28;20187;-83
2023/03/16 04:52:47;;;;;;;10.13;2.27;;;3.80;24.20;;;;;;5100602;28;20205;-84
2023/03/16 04:55:12;;;;;;;4.17;1.93;;;3.80;50.60;;;;;;5100895;28;20545;-83
2023/03/16 04:57:38;;;;;;;2.27;1.73;;;3.80;64.10;;;;;;5119292;28;20242;-83
2023/03/16 05:00:14;;;;;;;3.03;2.00;;;3.80;70.10;;;;;;5100353;28;20181;-83
2023/03/16 05:02:40;;;;;;;3.33;1.90;;;3.80;76.90;;;;;;5118622;28;20185;-83
2023/03/16 05:05:06;;;;;;;1.77;1.50;;;3.80;72.60;;;;;;5099769;28;20170;-83
2023/03/16 05:07:31;;;;;;;3.73;1.83;;;3.90;66.90;;;;;;5100648;28;20187;-83
2023/03/16 05:09:57;;;;;;;3.27;1.83;;;3.90;60.60;;;;;;5119397;28;20616;-83
2023/03/16 05:12:22;;;;;;;3.93;2.10;;;3.90;95.00;;;;;;5100356;28;20196;-83
2023/03/16 05:14:48;;;;;;;5.77;2.37;;;3.90;96.90;;;;;;5118506;28;20173;-83
2023/03/16 05:17:13;;;;;;;5.80;2.43;;;3.90;95.00;;;;;;5119524;28;20194;-84
2023/03/16 05:19:39;;;;;;;4.03;2.40;;;3.90;97.60;;;;;;5101309;28;20176;-83
2023/03/16 05:22:05;;;;;;;4.23;2.10;;;3.90;95.10;;;;;;5118884;28;20707;-83
2023/03/16 05:24:31;;;;;;;4.70;2.50;;;3.90;87.30;;;;;;5119526;28;20181;-83
2023/03/16 05:26:57;;;;;;;5.47;2.60;;;3.90;99.90;;;;;;5119267;28;20231;-83
2023/03/16 05:29:23;;;;;;;2.40;2.13;;;3.90;91.80;;;;;;5119868;28;20166;-83
2023/03/16 05:31:49;;;;;;;4.10;2.17;;;3.90;94.00;;;;;;5101613;28;20189;-83
2023/03/16 05:34:15;;;;;;;3.20;2.30;;;3.90;67.60;;;;;;5120417;28;20235;-83
2023/03/16 05:36:40;;;;;;;3.23;2.40;;;3.90;78.90;;;;;;5100797;28;20182;-83
2023/03/16 05:39:07;;;;;;;6.20;2.87;;;3.90;79.60;;;;;;5102401;28;20177;-83
2023/03/16 05:41:33;;;;;;;6.07;2.73;;;3.90;87.20;;;;;;5102493;28;20209;-84
2023/03/16 05:43:58;;;;;;;6.00;2.80;;;3.90;99.90;;;;;;5118151;28;20227;-83
2023/03/16 05:46:24;;;;;;;5.23;2.60;;;4.00;89.30;;;;;;5118650;28;20216;-81
2023/03/16 05:48:49;;;;;;;3.43;2.80;;;4.00;99.90;;;;;;5119302;28;20197;-81
2023/03/16 05:51:15;;;;;;;7.80;2.83;;;4.00;94.80;;;;;;5104978;28;20197;-80
2023/03/16 05:53:41;;;;;;;5.90;2.53;;;4.00;99.90;;;;;;5123848;28;20173;-81
2023/03/16 05:56:07;;;;;;;5.47;3.00;;;4.00;99.90;;;;;;5105031;28;20196;-81
2023/03/16 05:58:32;;;;;;;5.17;3.43;;;4.00;99.90;;;;;;5126081;28;20671;-80
2023/03/16 06:01:01;;;;;;;6.33;2.87;;;4.10;95.90;;;;;;5124976;28;20197;-80
2023/03/16 06:03:26;;;;;;;3.73;2.80;;;4.10;91.50;;;;;;5104598;28;20204;-81
2023/03/16 06:05:52;;;;;;;4.33;3.20;;;4.10;63.80;;;;;;5123337;28;20560;-81
2023/03/16 06:08:18;;;;;;;8.87;3.00;;;4.10;52.80;;;;;;5123711;28;20181;-81
2023/03/16 06:10:46;;;;;;;4.80;2.70;;;4.10;61.50;;;;;;5122190;28;20174;-82
2023/03/16 06:13:12;;;;;;;7.77;3.37;;;4.10;71.70;;;;;;5123303;28;20173;-80
2023/03/16 06:15:37;;;;;;;3.60;2.70;;;4.10;54.30;;;;;;5123944;28;20170;-83
2023/03/16 06:18:03;;;;;;;5.57;3.37;;;4.20;58.10;;;;;;5106044;28;20300;-81
2023/03/16 06:20:29;;;;;;;3.20;2.80;;;4.20;69.70;;;;;;5123484;28;20226;-82
2023/03/16 06:22:54;;;;;;;5.00;3.13;;;4.20;67.10;;;;;;5122770;28;20200;-84
2023/03/16 06:25:20;;;;;;;5.13;3.20;;;4.20;60.90;;;;;;5122533;28;20180;-84
2023/03/16 06:27:46;;;;;;;5.43;3.07;;;4.20;80.30;;;;;;5102096;28;20228;-80
2023/03/16 06:30:12;;;;;;;5.73;3.50;;;4.30;63.60;;;;;;5102291;28;20645;-81
2023/03/16 06:32:41;;;;;;;5.23;3.03;;;4.30;41.70;;;;;;5101848;28;20204;-81
2023/03/16 06:35:08;;;;;;;5.10;3.27;;;4.30;42.90;;;;;;5120706;28;20170;-82
2023/03/16 06:37:34;;;;;;;3.93;2.90;;;4.30;53.20;;;;;;5120971;28;20181;-81
2023/03/16 06:40:00;;;;;;;5.70;3.47;;;4.30;48.80;;;;;;5120090;28;20226;-81
2023/03/16 06:42:25;;;;;;;4.77;2.77;;;4.30;63.10;;;;;;5119776;28;20197;-82
2023/03/16 06:44:51;;;;;;;6.90;2.93;;;4.40;52.20;;;;;;5120465;28;20222;-81
2023/03/16 06:47:17;;;;;;;5.60;3.30;;;4.40;61.90;;;;;;5120037;28;20193;-82
2023/03/16 06:49:43;;;;;;;5.93;3.07;;;4.50;47.20;;;;;;5102090;28;20178;-81
2023/03/16 06:52:09;;;;;;;5.27;3.07;;;4.50;77.40;;;;;;5119448;28;20200;-81
2023/03/16 06:54:36;;;;;;;4.70;3.53;;;4.60;32.10;;;;;;5101043;28;20616;-81
2023/03/16 06:57:02;;;;;;;4.40;2.93;;;4.60;17.40;;;;;;5119970;28;20219;-80
2023/03/16 06:59:28;;;;;;;4.83;3.00;;;4.70;56.50;;;;;;5118816;28;20170;-81
2023/03/16 07:01:54;;;;;;;4.77;3.13;;;4.70;5.90;;;;;;5099060;28;20202;-81
2023/03/16 07:04:20;;;;;;;7.00;3.73;;;4.80;1.00;;;;;;5118782;28;20716;-82
2023/03/16 07:06:46;;;;;;;7.77;2.90;;;4.80;3.50;;;;;;5118483;28;20190;-81
2023/03/16 07:09:11;;;;;;;4.93;2.90;;;4.90;6.00;;;;;;5118358;28;20177;-81
2023/03/16 07:11:37;;;;;;;4.33;3.10;;;4.90;13.00;;;;;;5119550;28;20276;-81
2023/03/16 07:14:03;;;;;;;5.57;3.30;;;4.90;1.00;;;;;;5119541;28;20173;-82
2023/03/16 07:16:29;;;;;;;3.77;2.53;;;5.00;1.00;;;;;;5101547;28;20181;-82
2023/03/16 07:18:54;;;;;;;3.13;2.63;;;5.00;1.00;;;;;;5102035;28;20260;-81
2023/03/16 07:21:20;;;;;;;5.00;3.50;;;5.10;1.00;;;;;;5120493;28;20243;-81
2023/03/16 07:23:46;;;;;;;7.13;3.10;;;5.10;1.00;;;;;;5120745;28;20205;-81
2023/03/16 07:26:12;;;;;;;6.17;3.20;;;5.10;1.00;;;;;;5118082;28;20276;-81
2023/03/16 07:28:38;;;;;;;4.50;2.93;;;5.20;1.00;;;;;;5118752;28;20223;-81
2023/03/16 07:31:05;;;;;;;4.53;2.90;;;5.20;9.70;;;;;;5100105;28;20197;-82
2023/03/16 07:33:32;;;;;;;5.43;3.10;;;5.20;1.80;;;;;;5100461;28;20204;-81
2023/03/16 07:35:58;;;;;;;4.57;2.90;;;5.30;10.20;;;;;;5118911;28;20591;-82
2023/03/16 07:38:23;;;;;;;4.33;2.80;;;5.30;1.00;;;;;;5118302;28;20280;-82
2023/03/16 07:40:51;;;;;;;5.67;2.77;;;5.30;2.90;;;;;;5119108;28;20629;-82
2023/03/16 07:43:16;;;;;;;4.93;3.20;;;5.30;1.90;;;;;;5119343;28;20181;-81
2023/03/16 07:45:47;;;;;;;3.53;2.37;;;5.40;5.60;;;;;;5118994;28;20174;-81
2023/03/16 07:48:12;;;;;;;5.83;3.30;;;5.40;1.00;;;;;;5100261;28;20166;-80
2023/03/16 07:50:38;;;;;;;5.30;2.90;;;5.40;28.10;;;;;;5100763;28;20188;-82
2023/03/16 07:53:04;;;;;;;3.90;2.83;;;5.40;24.90;;;;;;5101145;28;20201;-81
2023/03/16 07:55:30;;;;;;;5.63;2.90;;;5.40;39.00;;;;;;5100605;28;20169;-81
2023/03/16 07:57:56;;;;;;;4.97;2.77;;;5.40;77.60;;;;;;5101555;28;20204;-81
2023/03/16 08:00:22;;;;;;;5.03;2.67;;;5.40;43.30;;;;;;5118650;28;20548;-80
2023/03/16 08:02:49;;;;;;;3.40;2.73;;;5.40;56.60;;;;;;5118983;28;20538;-81
2023/03/16 08:05:15;;;;;;;3.80;2.83;;;5.50;40.20;;;;;;5101109;28;20314;-81
2023/03/16 08:07:40;;;;;;;4.70;2.73;;;5.50;99.70;;;;;;5118955;28;20215;-81
2023/03/16 08:10:06;;;;;;;4.37;2.77;;;5.50;79.20;;;;;;5119209;28;20248;-79
2023/03/16 08:12:32;;;;;;;3.43;2.70;;;5.60;99.90;;;;;;5100018;28;20587;-81
2023/03/16 08:14:58;;;;;;;4.53;2.50;;;5.60;15.70;;;;;;5119341;28;20170;-81
2023/03/16 08:17:24;;;;;;;5.10;3.47;;;5.60;41.40;;;;;;5101152;28;20222;-81
2023/03/16 08:19:49;;;;;;;5.03;3.13;;;5.70;77.50;;;;;;5119722;28;20202;-81
2023/03/16 08:22:16;;;;;;;4.83;2.80;;;5.70;99.90;;;;;;5120145;28;20204;-81
2023/03/16 08:24:41;;;;;;;3.53;2.67;;;5.70;65.30;;;;;;5120396;28;20185;-80
2023/03/16 08:27:07;;;;;;;3.63;2.70;;;5.80;91.20;;;;;;5120003;28;20201;-81
2023/03/16 08:29:33;;;;;;;6.17;3.17;;;5.80;99.90;;;;;;5103556;28;20177;-81
2023/03/16 08:31:59;;;;;;;5.70;3.00;;;5.90;99.90;;;;;;5137243;28;20189;-79
2023/03/16 08:34:25;;;;;;;3.33;2.73;;;5.90;75.50;;;;;;5118754;28;20162;-80
2023/03/16 08:36:52;;;;;;;4.70;3.10;;;5.90;99.90;;;;;;5107862;28;20250;-81
2023/03/16 08:39:19;;;;;;;5.90;3.00;;;6.00;99.90;;;;;;5116542;28;20181;-82
2023/03/16 08:41:45;;;;;;;3.87;3.00;;;6.00;99.90;;;;;;5098332;28;20204;-81
2023/03/16 08:44:11;;;;;;;4.33;2.67;;;6.00;99.90;;;;;;5116597;28;20196;-81
2023/03/16 08:46:38;;;;;;;3.40;2.90;;;6.00;99.90;;;;;;5097434;28;20203;-81
2023/03/16 08:49:04;;;;;;;5.33;2.83;;;6.00;99.90;;;;;;5115739;28;20232;-82
2023/03/16 08:51:29;;;;;;;5.07;3.00;;;6.10;99.90;;;;;;5116442;28;20761;-81
2023/03/16 08:53:55;;;;;;;5.33;3.20;;;6.10;99.90;;;;;;5117815;28;20169;-81
2023/03/16 08:56:21;;;;;;;4.27;2.97;;;6.10;99.90;;;;;;5117455;28;20230;-81
2023/03/16 08:58:47;;;;;;;6.10;3.07;;;6.20;99.90;;;;;;5118347;28;20628;-81
2023/03/16 09:01:16;;;;;;;5.00;2.80;;;6.20;99.90;;;;;;5117983;28;20199;-80
2023/03/16 09:03:41;;;;;;;3.10;2.30;;;6.20;99.90;;;;;;5117794;28;20188;-82
2023/03/16 09:06:09;;;;;;;4.43;2.80;;;6.30;99.90;;;;;;5099961;28;20548;-81
2023/03/16 09:08:35;;;;;;;3.73;2.73;;;6.30;99.90;;;;;;5118321;28;20170;-81
2023/03/16 09:11:04;;;;;;;3.73;2.73;;;6.40;99.90;;;;;;5118700;28;20196;-81
2023/03/16 09:13:31;;;;;;;3.40;2.57;;;6.50;52.60;;;;;;5118410;28;20256;-82
2023/03/16 09:15:56;;;;;;;5.07;3.00;;;6.50;59.90;;;;;;5100030;28;20189;-81
2023/03/16 09:18:25;;;;;;;6.20;3.10;;;6.50;3.50;;;;;;5118348;28;20275;-81
2023/03/16 09:20:51;;;;;;;4.10;2.80;;;6.60;26.30;;;;;;5119192;28;20586;-81
2023/03/16 09:23:18;;;;;;;4.43;3.23;;;6.60;4.60;;;;;;5118958;28;20177;-81
2023/03/16 09:25:44;;;;;;;4.03;3.47;;;6.80;10.10;;;;;;5121953;28;20173;-81
2023/03/16 09:28:10;;;;;;;3.93;3.20;;;6.70;48.20;;;;;;5136111;28;20189;-81
2023/03/16 09:30:36;;;;;;;5.30;3.27;;;6.70;99.90;;;;;;5117848;28;20169;-81
2023/03/16 09:33:03;;;;;;;4.30;3.20;;;6.80;70.50;;;;;;5119601;28;20165;-81
2023/03/16 09:35:28;;;;;;;4.37;2.73;;;6.90;99.90;;;;;;5096475;28;20251;-82
2023/03/16 09:37:56;;;;;;;5.07;3.30;;;6.90;99.90;;;;;;5115134;28;20173;-81
2023/03/16 09:40:28;;;;;;;4.80;2.90;;;7.00;99.90;;;;;;5096896;28;20169;-81
2023/03/16 09:43:32;;;;;;;4.43;2.60;;;7.10;99.90;;;;;;5096255;28;20197;-81
2023/03/16 09:46:00;;;;;;;5.87;3.10;;;7.10;99.90;;;;;;5075028;28;20228;-82
2023/03/16 09:48:29;;;;;;;7.70;3.53;;;7.20;99.90;;;;;;5115183;28;20192;-82
2023/03/16 09:50:57;;;;;;;4.27;3.10;;;7.30;99.90;;;;;;5096424;28;20176;-82
2023/03/16 09:53:34;;;;;;;4.73;3.10;;;7.30;99.90;;;;;;5096789;28;20181;-81
2023/03/16 09:56:09;;;;;;;4.57;2.80;;;7.40;99.90;;;;;;5115070;28;20160;-82
2023/03/16 09:58:35;;;;;;;3.23;2.57;;;7.40;64.50;;;;;;5097474;28;20215;-81
2023/03/16 10:01:29;;;;;;;5.17;3.10;;;7.50;99.90;;;;;;5096684;28;20197;-82
2023/03/16 10:04:10;;;;;;;3.63;2.80;;;7.60;99.90;;;;;;5096907;28;20723;-81
2023/03/16 10:07:01;;;;;;;5.30;2.83;;;7.70;99.90;;;;;;5115603;28;20220;-81
2023/03/16 10:09:55;;;;;;;4.90;2.90;;;7.70;99.90;;;;;;5115512;28;20157;-81
2023/03/16 10:12:26;;;;;;;5.60;2.93;;;7.80;99.90;;;;;;5115197;28;20197;-82
2023/03/16 10:15:10;;;;;;;5.60;2.80;;;7.80;99.90;;;;;;5097528;28;20274;-82
2023/03/16 10:18:16;;;;;;;7.00;3.53;;;7.90;99.90;;;;;;5096869;28;20216;-81
2023/03/16 10:20:44;;;;;;;4.37;2.90;;;7.90;99.90;;;;;;5115048;28;20169;-82
2023/03/16 10:23:19;;;;;;;3.80;2.70;;;7.90;99.90;;;;;;5115061;28;20177;-81
2023/03/16 10:25:46;;;;;;;3.87;2.67;;;7.90;99.90;;;;;;5097283;28;20176;-81
2023/03/16 10:28:15;;;;;;;6.30;3.53;;;7.90;72.80;;;;;;5096744;28;20197;-81
2023/03/16 10:30:41;;;;;;;4.10;2.80;;;7.90;66.90;;;;;;5115274;28;20641;-81
2023/03/16 10:33:18;;;;;;;4.80;3.00;;;7.90;1.00;;;;;;5115301;28;20273;-82
2023/03/16 10:36:00;;;;;;;4.53;2.93;;;8.00;12.80;;;;;;5097612;28;20173;-81
2023/03/16 10:38:49;;;;;;;5.43;3.50;;;8.10;66.20;;;;;;5119657;28;20174;-82
2023/03/16 10:41:21;;;;;;;4.53;2.83;;;8.20;99.90;;;;;;5100982;28;20193;-81
2023/03/16 10:43:57;;;;;;;2.90;2.43;;;8.30;91.60;;;;;;5100526;28;20593;-81
2023/03/16 10:46:26;;;;;;;4.97;2.73;;;8.40;99.90;;;;;;5118809;28;20193;-82
2023/03/16 10:48:58;;;;;;;5.27;3.10;;;8.60;99.90;;;;;;5100296;28;20174;-82
2023/03/16 10:51:26;;;;;;;5.03;3.20;;;8.70;99.90;;;;;;5119207;28;20186;-81
2023/03/16 10:53:53;;;;;;;5.57;2.83;;;8.80;99.90;;;;;;5100769;28;20174;-81
2023/03/16 10:56:22;;;;;;;5.17;3.00;;;8.90;99.90;;;;;;5100784;28;20208;-82
2023/03/16 10:58:48;;;;;;;4.70;3.00;;;9.00;46.30;;;;;;5100659;28;20716;-82
2023/03/16 11:01:25;;;;;;;5.33;2.93;;;9.10;79.20;;;;;;5100576;28;20224;-81
2023/03/16 11:03:54;;;;;;;3.70;2.67;;;9.20;99.90;;;;;;5100831;28;20165;-82
2023/03/16 11:06:24;;;;;;;4.97;2.80;;;9.20;99.90;;;;;;5100648;28;20228;-82
2023/03/16 11:08:52;;;;;;;4.20;2.73;;;9.30;99.90;;;;;;5100662;28;20633;-81
2023/03/16 11:11:26;;;;;;;4.23;2.67;;;9.40;99.90;;;;;;5118743;28;20193;-82
2023/03/16 11:13:56;;;;;;;5.40;3.20;;;9.40;28.60;;;;;;5118924;28;20189;-82
2023/03/16 11:16:44;;;;;;;7.50;2.80;;;9.50;99.90;;;;;;5118583;28;20207;-82
2023/03/16 11:19:19;;;;;;;3.93;2.77;;;9.60;94.80;;;;;;5099696;28;20204;-81
2023/03/16 11:21:57;;;;;;;7.10;2.93;;;9.60;19.40;;;;;;5099578;28;20272;-82
2023/03/16 11:24:38;;;;;;;4.87;2.50;;;9.70;99.90;;;;;;5118196;28;20166;-82
2023/03/16 11:27:11;;;;;;;2.93;2.50;;;9.80;1.00;;;;;;5099177;28;20193;-82
2023/03/16 11:29:47;;;;;;;4.90;2.53;;;10.00;80.70;;;;;;5117999;28;20154;-81
2023/03/16 11:32:19;;;;;;;4.77;2.77;;;10.00;70.10;;;;;;5117948;28;20193;-82
2023/03/16 11:34:46;;;;;;;4.67;2.33;;;10.00;71.90;;;;;;5117395;28;20154;-81
2023/03/16 11:37:56;;;;;;;4.23;2.07;;;10.10;99.90;;;;;;5099532;28;20499;-81
2023/03/16 11:40:24;;;;;;;3.47;2.07;;;10.10;99.90;;;;;;5015205;28;20185;-81
2023/03/16 11:42:58;;;;;;;2.90;2.10;;;10.20;92.10;;;;;;5080743;28;20318;-81
2023/03/16 11:45:47;;;;;;;2.97;2.10;;;10.20;99.90;;;;;;5099120;28;20197;-82
2023/03/16 11:48:26;;;;;;;3.73;2.20;;;10.30;1.00;;;;;;5098791;28;20177;-82
2023/03/16 11:51:10;;;;;;;4.73;2.40;;;10.40;99.90;;;;;;5099473;28;20218;-82
2023/03/16 11:53:57;;;;;;;3.97;1.97;;;10.40;99.90;;;;;;5098965;28;20158;-82
2023/03/16 11:56:34;;;;;;;5.90;2.10;;;10.50;99.90;;;;;;5116983;28;20165;-82
2023/03/16 11:59:22;;;;;;;3.87;2.40;;;10.50;99.90;;;;;;5098734;28;20197;-82
2023/03/16 12:02:07;;;;;;;2.90;1.80;;;10.60;99.90;;;;;;5098446;28;20200;-80
2023/03/16 12:04:35;;;;;;;2.70;1.50;;;10.70;99.90;;;;;;5081023;28;20285;-81
2023/03/16 12:07:26;;;;;;;3.07;1.77;;;10.80;99.90;;;;;;5098847;28;20269;-81
2023/03/16 12:10:12;;;;;;;5.53;1.70;;;10.90;1.00;;;;;;5099120;28;20164;-81
2023/03/16 12:12:41;;;;;;;3.53;1.90;;;10.90;1.00;;;;;;5099307;28;20741;-81
2023/03/16 12:15:28;;;;;;;2.77;1.80;;;10.90;1.00;;;;;;5099065;28;20631;-81
2023/03/16 12:18:01;;;;;;;3.03;1.73;;;10.90;1.00;;;;;;5099953;28;20605;-81
2023/03/16 12:20:33;;;;;;;1.60;1.50;;;11.00;1.00;;;;;;5099390;28;20219;-82
2023/03/16 12:23:06;;;;;;;3.10;1.67;;;10.90;99.90;;;;;;5098777;28;20193;-82
2023/03/16 12:25:36;;;;;;;4.47;1.90;;;10.90;1.00;;;;;;5099171;28;20169;-82
2023/03/16 12:28:06;;;;;;;4.03;1.93;;;11.00;1.00;;;;;;5099229;28;20245;-82
2023/03/16 12:30:47;;;;;;;3.33;1.83;;;10.90;1.00;;;;;;5098739;28;20269;-82
2023/03/16 12:33:19;;;;;;;3.47;2.07;;;10.90;1.00;;;;;;5117887;28;20146;-82
2023/03/16 12:35:56;;;;;;;3.57;1.80;;;10.90;1.00;;;;;;5099308;28;20169;-82
2023/03/16 12:38:46;;;;;;;1.97;1.60;;;10.90;1.00;;;;;;5099010;28;20681;-82
2023/03/16 12:41:50;;;;;;;3.43;1.83;;;10.90;1.00;;;;;;5099101;28;20574;-80
2023/03/16 12:44:27;;;;;;;2.40;1.63;;;10.90;1.00;;;;;;5098875;28;20206;-81
2023/03/16 12:47:21;;;;;;;3.47;1.67;;;10.90;99.90;;;;;;5098916;28;20189;-82
2023/03/16 12:49:48;;;;;;;4.83;1.70;;;11.00;99.90;;;;;;5099710;28;20169;-80
2023/03/16 12:52:13;;;;;;;2.67;1.77;;;11.00;99.90;;;;;;5098226;28;20193;-82
2023/03/16 12:54:50;;;;;;;3.80;1.77;;;11.00;99.90;;;;;;5116306;28;20176;-82
2023/03/16 12:57:18;;;;;;;3.03;1.73;;;11.10;21.10;;;;;;5116578;28;20172;-82
2023/03/16 12:59:46;;;;;;;3.47;1.80;;;11.10;1.00;;;;;;5097909;28;20169;-81
2023/03/16 13:02:19;;;;;;;2.83;1.40;;;11.10;1.00;;;;;;5097816;28;20205;-82
2023/03/16 13:04:48;;;;;;;6.47;2.50;;;11.10;1.00;;;;;;5116974;28;20162;-82
2023/03/16 13:07:32;;;;;;;2.47;1.60;;;11.10;1.00;;;;;;5116987;28;20197;-81
2023/03/16 13:10:11;;;;;;;5.23;1.90;;;11.20;1.00;;;;;;5116868;28;20177;-82